createdAt,value
2022-12-20T00:01:31.445Z,17.92
2022-12-20T00:04:02.327Z,17.55
2022-12-20T00:06:30.313Z,16.92
2022-12-20T00:09:00.436Z,15.13
2022-12-20T00:11:28.907Z,19.30
2022-12-20T00:13:58.157Z,14.18
2022-12-20T00:16:27.532Z,12.60
2022-12-20T00:18:57.479Z,14.10
2022-12-20T00:21:26.003Z,16.17
2022-12-20T00:23:54.685Z,13.63
2022-12-20T00:26:24.534Z,13.00
2022-12-20T00:28:53.886Z,16.80
2022-12-20T00:31:25.074Z,17.17
2022-12-20T00:33:54.803Z,20.40
2022-12-20T00:36:24.566Z,14.80
2022-12-20T00:38:54.046Z,17.60
2022-12-20T00:41:25.040Z,17.10
2022-12-20T00:43:53.201Z,16.98
2022-12-20T00:46:23.438Z,14.90
2022-12-20T00:48:52.015Z,16.35
2022-12-20T00:51:22.132Z,17.00
2022-12-20T00:53:50.288Z,15.68
2022-12-20T00:56:18.652Z,17.52
2022-12-20T00:58:46.824Z,17.52
2022-12-20T01:01:20.973Z,16.25
2022-12-20T01:03:50.544Z,15.98
2022-12-20T01:06:18.868Z,15.30
2022-12-20T01:08:46.986Z,17.35
2022-12-20T01:11:16.422Z,19.35
2022-12-20T01:13:46.749Z,25.20
2022-12-20T01:16:17.368Z,20.65
2022-12-20T01:18:45.525Z,20.10
2022-12-20T01:21:16.917Z,18.35
2022-12-20T01:23:44.939Z,22.45
2022-12-20T01:26:14.585Z,21.60
2022-12-20T01:28:44.409Z,16.92
2022-12-20T01:31:14.637Z,19.83
2022-12-20T01:33:42.324Z,22.48
2022-12-20T01:36:15.490Z,22.27
2022-12-20T01:38:43.422Z,21.00
2022-12-20T01:41:15.995Z,18.75
2022-12-20T01:43:49.764Z,21.23
2022-12-20T01:46:18.377Z,22.35
2022-12-20T01:48:50.608Z,24.80
2022-12-20T01:51:20.689Z,22.48
2022-12-20T01:53:52.581Z,24.23
2022-12-20T01:56:20.283Z,21.33
2022-12-20T01:58:52.241Z,23.65
2022-12-20T02:01:19.940Z,21.30
2022-12-20T02:03:48.485Z,25.67
2022-12-20T02:06:20.313Z,23.42
2022-12-20T02:08:51.003Z,22.17
2022-12-20T02:11:31.505Z,24.35
2022-12-20T02:14:09.377Z,24.25
2022-12-20T02:16:53.635Z,22.27
2022-12-20T02:19:47.301Z,23.33
2022-12-20T02:22:27.216Z,21.55
2022-12-20T02:25:27.705Z,22.33
2022-12-20T02:28:02.355Z,26.52
2022-12-20T02:30:35.627Z,25.10
2022-12-20T02:33:05.416Z,24.75
2022-12-20T02:35:35.656Z,25.40
2022-12-20T02:38:05.690Z,26.98
2022-12-20T02:40:40.566Z,25.20
2022-12-20T02:43:32.626Z,27.75
2022-12-20T02:46:03.001Z,25.42
2022-12-20T02:48:35.233Z,33.10
2022-12-20T02:51:04.975Z,22.50
2022-12-20T02:53:33.325Z,23.48
2022-12-20T02:56:08.767Z,23.75
2022-12-20T02:58:40.169Z,26.13
2022-12-20T03:01:13.146Z,24.00
2022-12-20T03:03:41.755Z,22.58
2022-12-20T03:06:09.647Z,27.33
2022-12-20T03:08:37.304Z,27.25
2022-12-20T03:11:04.965Z,19.73
2022-12-20T03:13:32.606Z,25.20
2022-12-20T03:16:00.599Z,24.50
2022-12-20T03:18:29.599Z,19.80
2022-12-20T03:20:57.234Z,26.73
2022-12-20T03:23:24.947Z,23.88
2022-12-20T03:25:52.638Z,22.73
2022-12-20T03:28:20.219Z,22.75
2022-12-20T03:30:48.559Z,22.20
2022-12-20T03:33:16.449Z,20.10
2022-12-20T03:35:45.687Z,21.92
2022-12-20T03:38:13.328Z,20.00
2022-12-20T03:40:40.943Z,21.92
2022-12-20T03:43:08.612Z,24.75
2022-12-20T03:45:36.319Z,20.38
2022-12-20T03:48:04.057Z,17.67
2022-12-20T03:50:32.271Z,19.65
2022-12-20T03:53:01.845Z,19.55
2022-12-20T03:55:29.597Z,19.88
2022-12-20T03:57:57.669Z,15.55
2022-12-20T04:00:26.228Z,16.00
2022-12-20T04:02:54.184Z,19.92
2022-12-20T04:05:22.253Z,17.77
2022-12-20T04:07:49.948Z,15.20
2022-12-20T04:10:19.093Z,14.90
2022-12-20T04:12:46.816Z,17.02
2022-12-20T04:15:14.475Z,18.83
2022-12-20T04:17:42.169Z,21.95
2022-12-20T04:20:20.619Z,24.45
2022-12-20T04:22:48.913Z,22.17
2022-12-20T04:25:19.732Z,23.83
2022-12-20T04:27:47.569Z,22.70
2022-12-20T04:30:15.848Z,18.92
2022-12-20T04:32:43.627Z,22.23
2022-12-20T04:35:11.891Z,21.40
2022-12-20T04:37:39.627Z,17.60
2022-12-20T04:40:08.552Z,16.58
2022-12-20T04:42:37.618Z,16.42
2022-12-20T04:45:05.919Z,17.90
2022-12-20T04:47:36.177Z,18.48
2022-12-20T04:50:03.923Z,25.85
2022-12-20T04:53:03.873Z,19.17
2022-12-20T04:55:31.567Z,29.67
2022-12-20T04:58:07.051Z,22.20
2022-12-20T05:00:35.595Z,24.75
2022-12-20T05:03:03.748Z,23.48
2022-12-20T05:05:31.491Z,23.52
2022-12-20T05:07:59.153Z,25.38
2022-12-20T05:10:27.324Z,20.17
2022-12-20T05:12:54.995Z,22.40
2022-12-20T05:15:23.950Z,17.33
2022-12-20T05:17:52.616Z,16.52
2022-12-20T05:20:20.275Z,15.07
2022-12-20T05:23:05.486Z,14.05
2022-12-20T05:25:50.673Z,19.73
2022-12-20T05:28:18.351Z,12.93
2022-12-20T05:30:47.347Z,14.20
2022-12-20T05:33:15.023Z,14.38
2022-12-20T05:35:42.702Z,14.55
2022-12-20T05:38:10.377Z,12.77
2022-12-20T05:40:38.309Z,11.38
2022-12-20T05:43:06.192Z,11.55
2022-12-20T05:45:33.974Z,17.05
2022-12-20T05:48:03.395Z,15.68
2022-12-20T05:50:31.038Z,15.23
2022-12-20T05:52:58.643Z,23.10
2022-12-20T05:55:26.387Z,17.42
2022-12-20T05:57:54.011Z,14.23
2022-12-20T06:00:21.991Z,15.90
2022-12-20T06:02:49.944Z,15.05
2022-12-20T06:05:19.751Z,14.40
2022-12-20T06:07:47.418Z,19.48
2022-12-20T06:10:15.119Z,19.27
2022-12-20T06:12:42.767Z,16.70
2022-12-20T06:15:11.277Z,24.25
2022-12-20T06:17:38.935Z,17.45
2022-12-20T06:20:08.146Z,19.20
2022-12-20T06:22:37.586Z,19.48
2022-12-20T06:25:06.142Z,18.98
2022-12-20T06:27:33.826Z,14.98
2022-12-20T06:30:01.537Z,17.73
2022-12-20T06:32:29.162Z,17.20
2022-12-20T06:34:56.906Z,22.15
2022-12-20T06:37:24.743Z,20.48
2022-12-20T06:39:53.768Z,20.75
2022-12-20T06:42:21.531Z,12.05
2022-12-20T06:44:49.719Z,9.82
2022-12-20T06:47:17.699Z,9.00
2022-12-20T06:49:45.336Z,16.20
2022-12-20T06:52:13.116Z,11.65
2022-12-20T06:54:40.887Z,12.90
2022-12-20T06:57:10.333Z,13.60
2022-12-20T06:59:38.074Z,14.40
2022-12-20T07:02:08.107Z,9.10
2022-12-20T07:04:37.794Z,10.45
2022-12-20T07:07:05.594Z,8.10
2022-12-20T07:09:34.224Z,6.80
2022-12-20T07:12:02.082Z,11.95
2022-12-20T07:14:31.296Z,7.80
2022-12-20T07:16:59.008Z,10.35
2022-12-20T07:19:27.133Z,8.45
2022-12-20T07:21:54.810Z,8.50
2022-12-20T07:24:22.637Z,11.25
2022-12-20T07:26:50.329Z,11.00
2022-12-20T07:29:18.123Z,9.40
2022-12-20T07:31:47.247Z,11.95
2022-12-20T07:34:15.092Z,10.32
2022-12-20T07:36:42.700Z,9.15
2022-12-20T07:39:11.655Z,12.07
2022-12-20T07:41:39.553Z,17.13
2022-12-20T07:44:07.383Z,14.05
2022-12-20T07:46:35.260Z,16.38
2022-12-20T07:49:05.742Z,13.40
2022-12-20T07:51:37.633Z,11.40
2022-12-20T07:54:10.608Z,12.32
2022-12-20T07:56:41.878Z,16.45
2022-12-20T07:59:11.527Z,8.95
2022-12-20T08:01:40.127Z,7.20
2022-12-20T08:04:13.006Z,14.02
2022-12-20T08:06:43.087Z,13.25
2022-12-20T08:09:13.686Z,11.23
2022-12-20T08:11:44.514Z,11.95
2022-12-20T08:14:13.196Z,10.35
2022-12-20T08:16:41.618Z,9.40
2022-12-20T08:19:10.996Z,7.95
2022-12-20T08:21:38.763Z,10.98
2022-12-20T08:24:08.325Z,8.32
2022-12-20T08:26:39.495Z,10.95
2022-12-20T08:29:07.492Z,11.77
2022-12-20T08:31:38.008Z,10.38
2022-12-20T08:34:05.988Z,11.38
2022-12-20T08:36:35.316Z,8.02
2022-12-20T08:39:04.031Z,8.77
2022-12-20T08:41:31.805Z,9.05
2022-12-20T08:43:59.569Z,10.23
2022-12-20T08:46:27.481Z,9.13
2022-12-20T08:48:55.467Z,5.88
2022-12-20T08:51:23.408Z,9.10
2022-12-20T08:53:53.583Z,7.72
2022-12-20T08:56:21.418Z,10.93
2022-12-20T08:58:49.403Z,10.05
2022-12-20T09:01:19.236Z,9.93
2022-12-20T09:03:48.094Z,8.50
2022-12-20T09:06:19.741Z,10.98
2022-12-20T09:08:48.354Z,10.32
2022-12-20T09:11:19.313Z,7.88
2022-12-20T09:13:49.712Z,10.40
2022-12-20T09:16:19.665Z,9.07
2022-12-20T09:18:50.001Z,9.85
2022-12-20T09:21:18.094Z,8.50
2022-12-20T09:23:45.847Z,7.65
2022-12-20T09:26:15.752Z,9.82
2022-12-20T09:28:45.748Z,9.68
2022-12-20T09:31:15.621Z,11.35
2022-12-20T09:33:44.754Z,8.73
2022-12-20T09:36:13.751Z,9.38
2022-12-20T09:38:41.803Z,7.57
2022-12-20T09:41:22.781Z,8.75
2022-12-20T09:43:52.490Z,8.48
2022-12-20T09:46:20.670Z,8.70
2022-12-20T09:48:49.166Z,12.85
2022-12-20T09:51:30.897Z,12.95
2022-12-20T09:54:08.146Z,7.28
2022-12-20T09:56:39.887Z,6.85
2022-12-20T09:59:14.076Z,13.20
2022-12-20T10:01:45.767Z,10.18
2022-12-20T10:04:21.355Z,14.02
2022-12-20T10:07:02.069Z,9.73
2022-12-20T10:09:48.035Z,9.13
2022-12-20T10:12:27.182Z,7.95
2022-12-20T10:15:11.530Z,9.40
2022-12-20T10:17:51.382Z,9.57
2022-12-20T10:20:39.744Z,12.27
2022-12-20T10:23:14.492Z,7.88
2022-12-20T10:25:44.985Z,8.73
2022-12-20T10:28:17.326Z,6.13
2022-12-20T10:30:46.405Z,7.50
2022-12-20T10:33:19.326Z,9.10
2022-12-20T10:35:48.064Z,11.85
2022-12-20T10:38:17.846Z,7.47
2022-12-20T10:41:20.085Z,10.82
2022-12-20T10:43:43.125Z,8.00
2022-12-20T10:46:13.491Z,8.68
2022-12-20T10:48:42.967Z,7.88
2022-12-20T10:51:17.468Z,9.82
2022-12-20T10:53:54.632Z,7.10
2022-12-20T10:56:24.263Z,8.68
2022-12-20T10:58:59.963Z,8.80
2022-12-20T11:01:32.427Z,8.98
2022-12-20T11:04:02.466Z,5.75
2022-12-20T11:06:43.481Z,7.72
2022-12-20T11:09:27.724Z,6.63
2022-12-20T11:12:06.720Z,5.47
2022-12-20T11:14:39.437Z,9.30
2022-12-20T11:17:24.751Z,11.93
2022-12-20T11:20:13.657Z,5.28
2022-12-20T11:22:52.170Z,7.65
2022-12-20T11:25:34.640Z,6.78
2022-12-20T11:28:28.526Z,6.03
2022-12-20T11:31:10.161Z,8.52
2022-12-20T11:33:54.633Z,5.05
2022-12-20T11:36:33.745Z,6.13
2022-12-20T11:39:08.475Z,5.18
2022-12-20T11:41:41.368Z,8.35
2022-12-20T11:44:25.673Z,7.40
2022-12-20T11:47:13.126Z,11.77
2022-12-20T11:50:00.037Z,11.27
2022-12-20T11:52:36.973Z,9.07
2022-12-20T11:55:20.697Z,5.78
2022-12-20T12:00:51.340Z,8.13
2022-12-20T12:03:27.804Z,6.90
2022-12-20T12:06:01.921Z,6.57
2022-12-20T12:08:37.307Z,9.43
2022-12-20T12:11:25.516Z,7.20
2022-12-20T12:14:00.372Z,7.82
2022-12-20T12:16:33.218Z,6.25
2022-12-20T12:19:02.012Z,6.95
2022-12-20T12:21:38.354Z,8.32
2022-12-20T12:24:13.122Z,5.70
2022-12-20T12:26:41.655Z,3.90
2022-12-20T12:29:13.938Z,6.65
2022-12-20T12:31:45.526Z,9.20
2022-12-20T12:34:29.363Z,6.28
2022-12-20T12:37:29.423Z,5.97
2022-12-20T12:40:29.072Z,6.93
2022-12-20T12:43:21.339Z,7.03
2022-12-20T12:45:53.225Z,6.20
2022-12-20T12:48:27.769Z,5.15
2022-12-20T12:50:58.639Z,10.00
2022-12-20T12:53:35.457Z,9.88
2022-12-20T12:56:44.376Z,10.20
2022-12-20T12:59:46.065Z,6.60
2022-12-20T13:02:49.948Z,8.68
2022-12-20T13:05:35.628Z,7.43
2022-12-20T13:08:04.603Z,8.38
2022-12-20T13:11:00.469Z,8.48
2022-12-20T13:13:28.606Z,5.30
2022-12-20T13:16:14.673Z,7.43
2022-12-20T13:19:12.409Z,7.57
2022-12-20T13:21:43.279Z,7.57
2022-12-20T13:24:38.953Z,5.47
2022-12-20T13:27:33.633Z,5.05
2022-12-20T13:30:22.246Z,7.18
2022-12-20T13:33:24.460Z,6.57
2022-12-20T13:35:59.693Z,6.55
2022-12-20T13:38:56.180Z,10.07
2022-12-20T13:41:39.880Z,7.38
2022-12-20T13:44:42.199Z,8.85
2022-12-20T13:47:31.154Z,7.75
2022-12-20T13:50:02.949Z,7.43
2022-12-20T13:52:32.326Z,8.73
2022-12-20T13:55:03.210Z,7.55
2022-12-20T13:57:40.383Z,6.10
2022-12-20T14:00:17.508Z,6.30
2022-12-20T14:02:46.183Z,9.50
2022-12-20T14:05:20.955Z,7.93
2022-12-20T14:07:56.743Z,9.43
2022-12-20T14:10:26.450Z,11.82
2022-12-20T14:12:55.411Z,7.65
2022-12-20T14:15:29.180Z,15.68
2022-12-20T14:17:57.129Z,11.63
2022-12-20T14:20:31.275Z,8.27
2022-12-20T14:23:05.820Z,8.43
2022-12-20T14:25:39.356Z,7.32
2022-12-20T14:28:14.852Z,16.45
2022-12-20T14:30:45.779Z,13.15
2022-12-20T14:33:29.170Z,11.85
2022-12-20T14:35:57.000Z,16.45
2022-12-20T14:38:30.450Z,18.40
2022-12-20T14:40:58.535Z,14.45
2022-12-20T14:43:29.580Z,11.55
2022-12-20T14:46:18.543Z,18.23
2022-12-20T14:48:47.038Z,16.30
2022-12-20T14:51:20.191Z,19.58
2022-12-20T14:53:50.564Z,13.63
2022-12-20T14:56:25.104Z,21.98
2022-12-20T14:59:15.499Z,17.90
2022-12-20T15:01:45.117Z,21.80
2022-12-20T15:04:25.475Z,21.77
2022-12-20T15:06:53.902Z,22.40
2022-12-20T15:09:22.105Z,27.90
2022-12-20T15:11:51.646Z,22.80
2022-12-20T15:14:36.351Z,18.63
2022-12-20T15:17:11.544Z,22.73
2022-12-20T15:19:42.432Z,20.30
2022-12-20T15:22:15.809Z,25.63
2022-12-20T15:24:43.924Z,21.85
2022-12-20T15:27:14.474Z,20.77
2022-12-20T15:29:43.362Z,21.58
2022-12-20T15:32:18.938Z,18.08
2022-12-20T15:34:47.002Z,24.75
2022-12-20T15:37:18.694Z,18.33
2022-12-20T15:39:46.997Z,19.27
2022-12-20T15:42:18.598Z,17.42
2022-12-20T15:44:47.087Z,11.00
2022-12-20T15:47:17.387Z,5.93
2022-12-20T15:49:50.149Z,7.82
2022-12-20T15:52:21.764Z,8.50
2022-12-20T15:54:49.982Z,10.05
2022-12-20T15:57:17.858Z,10.60
2022-12-20T16:00:02.720Z,6.88
2022-12-20T16:02:33.528Z,5.60
2022-12-20T16:05:01.555Z,7.30
2022-12-20T16:07:29.408Z,9.27
2022-12-20T16:09:57.170Z,9.50
2022-12-20T16:12:27.909Z,8.20
2022-12-20T16:14:56.052Z,6.85
2022-12-20T16:17:24.036Z,7.28
2022-12-20T16:19:53.104Z,7.93
2022-12-20T16:22:23.053Z,9.30
2022-12-20T16:24:51.667Z,10.43
2022-12-20T16:27:19.411Z,11.43
2022-12-20T16:29:47.129Z,8.75
2022-12-20T16:32:16.487Z,10.30
2022-12-20T16:34:44.393Z,16.83
2022-12-20T16:37:13.783Z,6.78
2022-12-20T16:39:41.965Z,13.05
2022-12-20T16:42:14.631Z,7.68
2022-12-20T16:44:44.409Z,6.93
2022-12-20T16:47:12.298Z,6.63
2022-12-20T16:49:43.339Z,5.15
2022-12-20T16:52:23.800Z,6.10
2022-12-20T16:54:52.110Z,6.70
2022-12-20T16:57:21.169Z,7.88
2022-12-20T16:59:48.827Z,7.00
2022-12-20T17:02:24.620Z,6.72
2022-12-20T17:04:52.648Z,7.03
2022-12-20T17:07:21.747Z,8.20
2022-12-20T17:09:49.440Z,7.35
2022-12-20T17:12:17.863Z,8.80
2022-12-20T17:14:46.290Z,4.50
2022-12-20T17:17:14.216Z,5.45
2022-12-20T17:19:41.994Z,4.30
2022-12-20T17:22:24.441Z,13.88
2022-12-20T17:24:53.550Z,6.60
2022-12-20T17:27:21.248Z,7.75
2022-12-20T17:29:50.662Z,5.90
2022-12-20T17:32:21.794Z,5.90
2022-12-20T17:34:49.928Z,6.10
2022-12-20T17:37:18.252Z,7.20
2022-12-20T17:39:46.142Z,6.78
2022-12-20T17:42:15.467Z,18.60
2022-12-20T17:44:43.669Z,6.25
2022-12-20T17:47:11.610Z,7.90
2022-12-20T17:49:39.790Z,6.05
2022-12-20T17:52:07.409Z,5.65
2022-12-20T17:54:40.110Z,9.73
2022-12-20T17:57:15.944Z,7.82
2022-12-20T17:59:43.900Z,5.87
2022-12-20T18:02:21.336Z,8.50
2022-12-20T18:04:49.296Z,7.65
2022-12-20T18:07:17.138Z,6.82
2022-12-20T18:09:47.546Z,5.40
2022-12-20T18:12:17.213Z,9.83
2022-12-20T18:14:44.820Z,7.10
2022-12-20T18:17:12.604Z,13.35
2022-12-20T18:19:40.908Z,9.15
2022-12-20T18:22:08.709Z,7.75
2022-12-20T18:24:36.459Z,9.73
2022-12-20T18:27:04.222Z,6.40
2022-12-20T18:29:33.669Z,6.40
2022-12-20T18:32:01.356Z,7.20
2022-12-20T18:34:29.025Z,6.30
2022-12-20T18:36:56.670Z,6.10
2022-12-20T18:39:24.352Z,10.43
2022-12-20T18:41:52.016Z,7.28
2022-12-20T18:44:19.640Z,7.60
2022-12-20T18:46:48.700Z,11.73
2022-12-20T18:49:17.670Z,6.18
2022-12-20T18:51:45.413Z,5.82
2022-12-20T18:54:14.353Z,8.57
2022-12-20T18:56:42.233Z,5.30
2022-12-20T18:59:12.714Z,6.72
2022-12-20T19:01:42.543Z,4.70
2022-12-20T19:04:12.573Z,7.38
2022-12-20T19:06:41.063Z,8.50
2022-12-20T19:09:10.663Z,6.65
2022-12-20T19:11:38.910Z,5.95
2022-12-20T19:14:07.601Z,9.50
2022-12-20T19:16:35.568Z,7.88
2022-12-20T19:19:04.209Z,8.85
2022-12-20T19:21:34.796Z,6.43
2022-12-20T19:24:05.575Z,10.00
2022-12-20T19:26:34.258Z,4.05
2022-12-20T19:29:03.146Z,4.32
2022-12-20T19:31:32.356Z,5.50
2022-12-20T19:34:02.334Z,5.03
2022-12-20T19:36:35.835Z,7.17
2022-12-20T19:39:06.249Z,5.90
2022-12-20T19:41:36.052Z,8.27
2022-12-20T19:44:04.680Z,5.77
2022-12-20T19:46:32.441Z,7.43
2022-12-20T19:49:00.667Z,10.07
2022-12-20T19:51:29.209Z,10.97
2022-12-20T19:53:59.300Z,16.10
2022-12-20T19:56:30.191Z,15.97
2022-12-20T19:58:57.997Z,17.10
2022-12-20T20:01:27.612Z,12.97
2022-12-20T20:03:57.212Z,10.00
2022-12-20T20:06:26.468Z,11.82
2022-12-20T20:08:54.909Z,6.47
2022-12-20T20:11:24.307Z,7.30
2022-12-20T20:13:52.092Z,5.45
2022-12-20T20:16:22.576Z,5.47
2022-12-20T20:18:50.944Z,7.45
2022-12-20T20:21:22.388Z,4.93
2022-12-20T20:23:51.195Z,6.53
2022-12-20T20:26:21.828Z,8.00
2022-12-20T20:28:51.352Z,7.43
2022-12-20T20:31:21.147Z,5.93
2022-12-20T20:33:49.795Z,7.27
2022-12-20T20:36:19.977Z,10.57
2022-12-20T20:38:48.624Z,6.53
2022-12-20T20:41:16.541Z,6.07
2022-12-20T20:43:44.854Z,6.57
2022-12-20T20:46:14.968Z,8.98
2022-12-20T20:48:43.463Z,9.23
2022-12-20T20:51:12.043Z,8.35
2022-12-20T20:53:40.449Z,9.13
2022-12-20T20:56:09.203Z,9.32
2022-12-20T20:58:37.599Z,12.68
2022-12-20T21:01:08.413Z,10.05
2022-12-20T21:03:38.715Z,8.43
2022-12-20T21:08:56.165Z,7.60
2022-12-20T21:11:24.496Z,7.13
2022-12-20T21:13:54.536Z,5.82
2022-12-20T21:16:22.967Z,6.22
2022-12-20T21:18:53.131Z,7.57
2022-12-20T21:21:21.951Z,29.27
2022-12-20T21:23:50.409Z,34.55
2022-12-20T21:26:19.998Z,31.63
2022-12-20T21:28:47.862Z,36.42
2022-12-20T21:31:18.010Z,31.52
2022-12-20T21:33:46.981Z,28.65
2022-12-20T21:36:18.384Z,26.65
2022-12-20T21:38:50.358Z,17.42
2022-12-20T21:41:20.078Z,22.25
2022-12-20T21:43:47.989Z,24.83
2022-12-20T21:46:15.931Z,20.13
2022-12-20T21:48:45.586Z,16.02
2022-12-20T21:51:15.201Z,12.02
2022-12-20T21:53:46.054Z,24.05
2022-12-20T21:56:15.948Z,23.35
2022-12-20T21:58:44.168Z,24.20
2022-12-20T22:01:14.173Z,24.30
2022-12-20T22:03:42.334Z,22.27
2022-12-20T22:06:10.720Z,17.35
2022-12-20T22:08:38.472Z,21.58
2022-12-20T22:11:09.664Z,26.80
2022-12-20T22:13:41.567Z,32.72
2022-12-20T22:16:11.464Z,24.90
2022-12-20T22:18:40.851Z,22.58
2022-12-20T22:21:11.482Z,15.32
2022-12-20T22:23:39.813Z,23.40
2022-12-20T22:26:10.666Z,15.30
2022-12-20T22:28:39.569Z,14.05
2022-12-20T22:31:09.556Z,9.95
2022-12-20T22:33:38.071Z,12.88
2022-12-20T22:36:06.803Z,23.90
2022-12-20T22:38:34.938Z,12.02
2022-12-20T22:41:10.472Z,13.00
2022-12-20T22:43:38.744Z,9.88
2022-12-20T22:46:07.947Z,8.80
2022-12-20T22:48:35.829Z,21.48
2022-12-20T22:51:05.976Z,14.35
2022-12-20T22:53:34.695Z,13.30
2022-12-20T22:56:02.851Z,14.40
2022-12-20T22:58:32.727Z,11.40
2022-12-20T23:01:02.385Z,10.60
2022-12-20T23:03:31.530Z,10.13
2022-12-20T23:06:01.442Z,8.75
2022-12-20T23:08:32.653Z,9.60
2022-12-20T23:11:26.728Z,11.63
2022-12-20T23:14:13.081Z,14.77
2022-12-20T23:16:40.988Z,8.98
2022-12-20T23:19:08.930Z,11.23
2022-12-20T23:21:54.256Z,12.77
2022-12-20T23:24:22.173Z,11.23
2022-12-20T23:26:50.036Z,14.68
2022-12-20T23:29:19.208Z,10.18
2022-12-20T23:31:47.296Z,14.50
2022-12-20T23:34:15.106Z,11.18
2022-12-20T23:36:42.942Z,13.75
2022-12-20T23:39:10.962Z,12.43
2022-12-20T23:41:38.801Z,14.00
2022-12-20T23:44:07.610Z,10.07
2022-12-20T23:46:36.875Z,10.55
2022-12-20T23:49:04.864Z,12.18
2022-12-20T23:51:34.662Z,9.45
2022-12-20T23:54:02.658Z,11.02
2022-12-20T23:56:30.488Z,9.45
2022-12-20T23:58:58.388Z,9.27
